createdAt,value
2017-05-14T18:43:00.599Z,81.10
2017-05-14T18:45:28.807Z,82.00
2017-05-14T18:47:57.020Z,82.20
2017-05-14T18:50:25.221Z,82.20
2017-05-14T18:52:54.167Z,82.50
2017-05-14T18:55:22.379Z,83.70
2017-05-14T18:57:50.579Z,84.40
2017-05-14T19:00:19.548Z,84.80
2017-05-14T19:02:47.767Z,84.80
2017-05-14T19:05:15.972Z,84.80
2017-05-14T19:07:44.195Z,85.40
2017-05-14T19:10:13.144Z,85.70
2017-05-14T19:12:41.361Z,85.90
2017-05-14T19:15:10.315Z,86.30
2017-05-14T19:17:38.530Z,85.90
2017-05-14T19:20:07.484Z,85.60
2017-05-14T19:22:35.695Z,85.00
2017-05-14T19:25:04.643Z,84.30
2017-05-14T19:27:32.846Z,84.10
2017-05-14T19:30:01.055Z,84.80
2017-05-14T19:32:29.256Z,85.20
2017-05-14T19:34:57.467Z,86.20
2017-05-14T19:37:25.677Z,84.50
2017-05-14T19:39:53.883Z,84.00
2017-05-14T19:42:22.099Z,83.80
2017-05-14T19:44:51.050Z,83.80
2017-05-14T19:47:19.261Z,84.00
2017-05-14T19:49:48.207Z,83.50
2017-05-14T19:52:17.072Z,83.20
2017-05-14T19:54:45.267Z,83.10
2017-05-14T19:57:13.488Z,82.80
2017-05-14T19:59:41.708Z,82.50
2017-05-14T20:02:09.922Z,83.60
2017-05-14T20:04:38.145Z,84.30
2017-05-14T20:07:06.343Z,85.00
2017-05-14T20:09:34.556Z,85.40
2017-05-14T20:12:02.756Z,85.80
2017-05-14T20:14:31.738Z,86.10
2017-05-14T20:17:00.689Z,85.80
2017-05-14T20:19:28.936Z,86.70
2017-05-14T20:21:57.147Z,86.80
2017-05-14T20:24:25.593Z,85.90
2017-05-14T20:26:53.808Z,85.20
2017-05-14T20:29:22.002Z,85.50
2017-05-14T20:31:50.958Z,87.40
2017-05-14T20:34:19.174Z,89.40
2017-05-14T20:36:48.141Z,90.10
2017-05-14T20:39:16.340Z,89.80
2017-05-14T20:41:45.296Z,90.30
2017-05-14T20:44:13.511Z,90.40
2017-05-14T20:46:42.447Z,90.80
2017-05-14T20:49:10.663Z,91.30
2017-05-14T20:51:38.854Z,91.00
2017-05-14T20:54:07.814Z,89.90
2017-05-14T20:56:36.028Z,90.40
2017-05-14T20:59:04.979Z,90.30
2017-05-14T21:01:33.191Z,90.20
2017-05-14T21:04:02.136Z,90.70
2017-05-14T21:06:30.344Z,90.90
2017-05-14T21:08:59.304Z,90.90
2017-05-14T21:11:27.539Z,91.00
2017-05-14T21:13:55.756Z,91.10
2017-05-14T21:16:24.909Z,91.20
2017-05-14T21:18:53.121Z,90.70
2017-05-14T21:21:21.323Z,90.80
2017-05-14T21:23:49.527Z,91.20
2017-05-14T21:26:17.724Z,91.80
2017-05-14T21:28:45.944Z,92.30
2017-05-14T21:31:14.149Z,92.50
2017-05-14T21:33:42.356Z,92.50
2017-05-14T21:36:10.570Z,91.90
2017-05-14T21:38:38.772Z,91.20
2017-05-14T21:41:07.747Z,90.80
2017-05-14T21:43:36.696Z,91.30
2017-05-14T21:46:04.933Z,91.20
2017-05-14T21:48:33.879Z,91.30
2017-05-14T21:51:02.083Z,91.40
2017-05-14T21:53:31.039Z,90.70
2017-05-14T21:55:59.243Z,90.20
2017-05-14T21:58:27.502Z,90.10
2017-05-14T22:00:55.715Z,90.40
2017-05-14T22:03:23.933Z,90.70
2017-05-14T22:05:52.131Z,90.60
2017-05-14T22:08:20.369Z,90.60
2017-05-14T22:10:48.571Z,90.30
2017-05-14T22:13:17.639Z,90.50
2017-05-14T22:15:45.859Z,90.70
2017-05-14T22:18:14.063Z,90.60
2017-05-14T22:20:42.278Z,90.80
2017-05-14T22:23:10.491Z,90.50
2017-05-14T22:25:38.707Z,90.60
2017-05-14T22:28:06.911Z,90.60
2017-05-14T22:30:35.111Z,90.80
2017-05-14T22:33:04.080Z,91.10
2017-05-14T22:35:32.284Z,91.10
2017-05-14T22:38:01.242Z,91.00
2017-05-14T22:40:29.443Z,91.50
2017-05-14T22:42:57.659Z,91.40
2017-05-14T22:45:25.858Z,91.40
2017-05-14T22:47:54.044Z,91.80
2017-05-14T22:50:22.247Z,91.90
2017-05-14T22:52:51.187Z,92.10
2017-05-14T22:55:19.395Z,91.50
2017-05-14T22:57:47.601Z,91.10
2017-05-14T23:00:16.551Z,91.00
2017-05-14T23:02:44.839Z,90.70
2017-05-14T23:05:13.060Z,89.50
2017-05-14T23:07:41.267Z,89.60
2017-05-14T23:10:09.492Z,89.10
2017-05-14T23:12:39.551Z,89.00
2017-05-14T23:15:07.755Z,89.50
2017-05-14T23:17:35.963Z,89.70
2017-05-14T23:20:04.192Z,89.60
2017-05-14T23:22:32.391Z,90.20
2017-05-14T23:25:01.863Z,90.60
2017-05-14T23:27:30.076Z,90.90
2017-05-14T23:29:59.015Z,91.00
2017-05-14T23:32:27.224Z,90.90
2017-05-14T23:34:55.427Z,90.80
2017-05-14T23:37:24.395Z,90.70
2017-05-14T23:39:52.591Z,90.60
2017-05-14T23:42:21.534Z,90.40
2017-05-14T23:44:49.743Z,90.60
2017-05-14T23:47:18.587Z,90.70
2017-05-14T23:49:46.795Z,91.20
2017-05-14T23:52:14.987Z,91.20
2017-05-14T23:54:43.945Z,91.40
2017-05-14T23:57:12.157Z,91.40
2017-05-14T23:59:40.348Z,91.30
